Time;durP1;ratioP1;P1;durP2;ratioP2;P2;SDS_P1;SDS_P2;PMS_P1;PMS_P2;Temp;Humidity;BMP_temperature;BMP_pressure;BME280_temperature;BME280_humidity;BME280_pressure;Samples;Min_cycle;Max_cycle;Signal;HPM_P1;HPM_P2
2024/03/24 00:02:14;;;;;;;;;;;8.10;79.70;;;;;;5104414;27;20336;-73
2024/03/24 00:04:39;;;;;;;;;;;8.20;79.70;;;;;;5103875;27;20133;-73
2024/03/24 00:07:05;;;;;;;;;;;8.20;79.40;;;;;;5103345;27;20024;-73
2024/03/24 00:09:31;;;;;;;;;;;8.10;79.60;;;;;;5106125;27;19993;-73
2024/03/24 00:11:59;;;;;;;;;;;8.10;80.40;;;;;;5107695;27;20314;-73
2024/03/24 00:14:24;;;;;;;;;;;8.20;79.90;;;;;;5103901;27;20053;-73
2024/03/24 00:16:50;;;;;;;;;;;8.20;80.10;;;;;;5103550;28;20304;-73
2024/03/24 00:19:15;;;;;;;;;;;8.20;80.10;;;;;;5103115;28;19984;-73
2024/03/24 00:21:41;;;;;;;;;;;8.30;80.40;;;;;;5104224;27;19988;-74
2024/03/24 00:24:07;;;;;;;;;;;8.30;80.00;;;;;;5106162;27;20000;-73
2024/03/24 00:26:32;;;;;;;;;;;8.30;80.80;;;;;;5108970;27;20106;-73
2024/03/24 00:28:58;;;;;;;;;;;8.20;80.80;;;;;;5106397;27;20087;-73
2024/03/24 00:31:23;;;;;;;;;;;8.30;80.60;;;;;;5098452;28;20386;-73
2024/03/24 00:33:49;;;;;;;;;;;8.30;80.50;;;;;;5081746;27;20054;-74
2024/03/24 00:36:14;;;;;;;;;;;8.40;81.00;;;;;;5102999;27;19993;-74
2024/03/24 00:38:40;;;;;;;;;;;8.40;81.30;;;;;;5099721;28;20092;-74
2024/03/24 00:41:06;;;;;;;;;;;8.10;82.70;;;;;;5100824;27;20558;-74
2024/03/24 00:43:32;;;;;;;;;;;8.20;83.40;;;;;;5109723;27;20032;-73
2024/03/24 00:45:58;;;;;;;;;;;8.10;83.60;;;;;;5102670;28;20003;-74
2024/03/24 00:48:23;;;;;;;;;;;8.00;84.40;;;;;;5103024;28;19993;-74
2024/03/24 00:50:49;;;;;;;;;;;8.10;85.20;;;;;;5110167;27;20061;-74
2024/03/24 00:53:15;;;;;;;;;;;8.10;85.70;;;;;;5103990;27;20028;-74
2024/03/24 00:55:40;;;;;;;;;;;8.10;85.40;;;;;;5102632;27;19997;-74
2024/03/24 00:58:07;;;;;;;;;;;8.20;84.90;;;;;;5105166;27;20721;-73
2024/03/24 01:00:33;;;;;;;;;;;8.00;85.60;;;;;;5105363;27;20053;-73
2024/03/24 01:02:58;;;;;;;;;;;8.20;85.60;;;;;;5099623;28;20573;-74
2024/03/24 01:05:24;;;;;;;;;;;8.10;86.20;;;;;;5097716;28;20405;-73
2024/03/24 01:07:50;;;;;;;;;;;7.90;88.00;;;;;;5098817;28;19996;-73
2024/03/24 01:10:16;;;;;;;;;;;7.90;89.70;;;;;;5101541;28;20028;-73
2024/03/24 01:12:49;;;;;;;;;;;7.90;90.60;;;;;;5102567;28;20103;-74
2024/03/24 01:15:17;;;;;;;;;;;7.90;90.80;;;;;;5102045;28;19989;-73
2024/03/24 01:17:43;;;;;;;;;;;8.00;91.00;;;;;;5102189;28;19988;-73
2024/03/24 01:20:12;;;;;;;;;;;7.70;92.20;;;;;;5096099;28;20037;-73
2024/03/24 01:22:37;;;;;;;;;;;7.80;92.60;;;;;;5102678;28;20011;-74
2024/03/24 01:25:04;;;;;;;;;;;8.00;92.60;;;;;;5102770;28;19989;-74
2024/03/24 01:27:30;;;;;;;;;;;7.90;92.60;;;;;;5098986;28;20459;-74
2024/03/24 01:29:55;;;;;;;;;;;7.80;93.20;;;;;;5102389;28;20080;-73
2024/03/24 01:32:21;;;;;;;;;;;7.80;93.70;;;;;;5102204;28;20119;-73
2024/03/24 01:34:46;;;;;;;;;;;7.90;94.00;;;;;;5100038;28;20018;-73
2024/03/24 01:37:12;;;;;;;;;;;7.90;94.50;;;;;;5102465;28;20027;-73
2024/03/24 01:39:37;;;;;;;;;;;7.80;94.60;;;;;;5103641;28;20099;-73
2024/03/24 01:42:03;;;;;;;;;;;7.50;95.70;;;;;;5100488;27;20027;-73
2024/03/24 01:44:30;;;;;;;;;;;7.30;97.40;;;;;;5107258;28;19996;-73
2024/03/24 01:46:55;;;;;;;;;;;7.20;99.90;;;;;;5109726;27;19992;-73
2024/03/24 01:49:21;;;;;;;;;;;7.30;99.90;;;;;;5106577;27;19996;-73
2024/03/24 01:51:47;;;;;;;;;;;7.10;99.80;;;;;;5106718;27;19991;-73
2024/03/24 01:54:13;;;;;;;;;;;7.20;99.90;;;;;;5106549;28;20013;-74
2024/03/24 01:56:39;;;;;;;;;;;7.30;99.90;;;;;;5106735;28;19993;-73
2024/03/24 01:59:05;;;;;;;;;;;7.20;99.90;;;;;;5106804;27;20000;-74
2024/03/24 02:01:30;;;;;;;;;;;7.30;99.90;;;;;;5106342;28;19989;-74
2024/03/24 02:03:56;;;;;;;;;;;7.30;99.90;;;;;;5095876;28;19981;-73
2024/03/24 02:06:21;;;;;;;;;;;7.20;99.90;;;;;;5106329;27;20021;-73
2024/03/24 02:08:47;;;;;;;;;;;7.30;99.90;;;;;;5106093;28;20045;-73
2024/03/24 02:11:13;;;;;;;;;;;7.30;99.90;;;;;;5106424;28;20043;-73
2024/03/24 02:13:38;;;;;;;;;;;7.20;99.90;;;;;;5101470;28;20750;-73
2024/03/24 02:16:04;;;;;;;;;;;7.10;99.90;;;;;;5108890;27;19997;-73
2024/03/24 02:18:29;;;;;;;;;;;7.10;99.90;;;;;;5105774;28;19996;-73
2024/03/24 02:20:55;;;;;;;;;;;7.00;99.90;;;;;;5111084;27;19988;-73
2024/03/24 02:23:21;;;;;;;;;;;7.10;99.90;;;;;;5106509;27;20003;-74
2024/03/24 02:25:47;;;;;;;;;;;7.10;99.90;;;;;;5105526;28;20001;-74
2024/03/24 02:28:13;;;;;;;;;;;7.10;99.90;;;;;;5106992;27;19989;-74
2024/03/24 02:30:38;;;;;;;;;;;7.10;99.90;;;;;;5105195;28;19996;-74
2024/03/24 02:33:04;;;;;;;;;;;7.10;99.90;;;;;;5106333;27;20015;-74
2024/03/24 02:35:30;;;;;;;;;;;7.30;99.90;;;;;;5105920;27;20078;-74
2024/03/24 02:37:55;;;;;;;;;;;7.10;99.90;;;;;;5102967;27;19988;-74
2024/03/24 02:40:21;;;;;;;;;;;7.10;99.90;;;;;;5104519;28;20045;-74
2024/03/24 02:42:46;;;;;;;;;;;7.10;99.90;;;;;;5102934;28;19985;-74
2024/03/24 02:45:12;;;;;;;;;;;7.20;99.90;;;;;;5104697;27;20045;-74
2024/03/24 02:47:38;;;;;;;;;;;7.20;99.90;;;;;;5092278;28;19992;-74
2024/03/24 02:50:04;;;;;;;;;;;7.10;99.90;;;;;;5104163;28;20076;-74
2024/03/24 02:52:31;;;;;;;;;;;7.00;99.90;;;;;;5107932;27;20595;-74
2024/03/24 02:54:57;;;;;;;;;;;7.00;99.90;;;;;;5105759;27;20040;-74
2024/03/24 02:57:22;;;;;;;;;;;7.00;99.90;;;;;;5111662;27;20062;-74
2024/03/24 02:59:48;;;;;;;;;;;7.00;99.90;;;;;;5108964;27;19993;-74
2024/03/24 03:02:13;;;;;;;;;;;7.00;99.90;;;;;;5104823;27;20469;-75
2024/03/24 03:04:39;;;;;;;;;;;6.90;99.90;;;;;;5105975;27;20099;-74
2024/03/24 03:07:05;;;;;;;;;;;6.90;99.90;;;;;;5104185;28;20072;-74
2024/03/24 03:09:31;;;;;;;;;;;6.80;99.90;;;;;;5106692;27;19988;-74
2024/03/24 03:11:57;;;;;;;;;;;6.80;99.90;;;;;;5104841;28;19989;-74
2024/03/24 03:14:23;;;;;;;;;;;6.70;99.90;;;;;;5104339;28;20073;-74
2024/03/24 03:16:49;;;;;;;;;;;6.70;99.90;;;;;;5104276;28;20463;-74
2024/03/24 03:19:14;;;;;;;;;;;6.50;99.90;;;;;;5098502;28;19993;-73
2024/03/24 03:21:40;;;;;;;;;;;6.60;99.90;;;;;;5105127;28;19985;-74
2024/03/24 03:24:05;;;;;;;;;;;6.70;99.90;;;;;;5104288;28;19988;-73
2024/03/24 03:26:31;;;;;;;;;;;6.90;99.90;;;;;;5104236;28;20898;-73
2024/03/24 03:28:56;;;;;;;;;;;7.10;99.90;;;;;;5103762;28;19989;-74
2024/03/24 03:31:22;;;;;;;;;;;7.20;99.90;;;;;;5104361;28;19988;-74
2024/03/24 03:33:48;;;;;;;;;;;7.20;99.90;;;;;;5103624;28;20008;-73
2024/03/24 03:36:13;;;;;;;;;;;7.20;99.90;;;;;;5104544;28;19993;-74
2024/03/24 03:38:39;;;;;;;;;;;7.20;99.90;;;;;;5103174;28;20065;-74
2024/03/24 03:41:05;;;;;;;;;;;7.10;99.90;;;;;;5103728;28;19996;-74
2024/03/24 03:43:31;;;;;;;;;;;7.00;99.90;;;;;;5101814;28;19992;-73
2024/03/24 03:45:57;;;;;;;;;;;7.00;99.90;;;;;;5103806;28;20042;-74
2024/03/24 03:48:22;;;;;;;;;;;7.00;99.90;;;;;;5103434;28;20083;-73
2024/03/24 03:50:48;;;;;;;;;;;6.90;99.90;;;;;;5104028;28;20132;-74
2024/03/24 03:53:24;;;;;;;;;;;6.90;99.90;;;;;;5103456;28;20005;-73
2024/03/24 03:55:53;;;;;;;;;;;7.00;99.90;;;;;;5104096;28;20462;-73
2024/03/24 03:58:19;;;;;;;;;;;7.00;99.90;;;;;;5101805;27;19988;-74
2024/03/24 04:00:45;;;;;;;;;;;6.90;99.90;;;;;;5105042;27;19994;-74
2024/03/24 04:03:10;;;;;;;;;;;6.90;99.90;;;;;;5102762;28;19991;-74
2024/03/24 04:05:39;;;;;;;;;;;6.90;99.90;;;;;;5101987;28;20016;-75
2024/03/24 04:08:07;;;;;;;;;;;7.00;99.90;;;;;;5099648;28;20000;-74
2024/03/24 04:10:32;;;;;;;;;;;7.00;99.90;;;;;;5103195;28;19992;-74
2024/03/24 04:12:58;;;;;;;;;;;7.00;99.90;;;;;;5110464;27;20012;-73
2024/03/24 04:15:23;;;;;;;;;;;7.00;99.90;;;;;;5107054;27;19992;-74
2024/03/24 04:17:49;;;;;;;;;;;7.10;99.90;;;;;;5107053;27;20039;-74
2024/03/24 04:20:14;;;;;;;;;;;7.10;99.90;;;;;;5103609;28;20162;-73
2024/03/24 04:22:43;;;;;;;;;;;7.00;99.90;;;;;;5107725;27;19993;-73
2024/03/24 04:25:10;;;;;;;;;;;7.00;99.90;;;;;;5084481;28;20866;-72
2024/03/24 04:27:35;;;;;;;;;;;7.00;99.90;;;;;;5106639;27;20908;-73
2024/03/24 04:30:01;;;;;;;;;;;7.10;99.90;;;;;;5104535;27;19989;-73
2024/03/24 04:32:26;;;;;;;;;;;7.10;99.90;;;;;;5105751;27;20000;-73
2024/03/24 04:34:52;;;;;;;;;;;6.90;99.90;;;;;;5103118;28;19993;-73
2024/03/24 04:37:18;;;;;;;;;;;6.90;99.90;;;;;;5102879;28;20471;-73
2024/03/24 04:39:43;;;;;;;;;;;7.00;99.90;;;;;;5102766;28;20439;-74
2024/03/24 04:42:09;;;;;;;;;;;7.10;99.90;;;;;;5102514;28;19989;-74
2024/03/24 04:44:35;;;;;;;;;;;7.20;99.90;;;;;;5102807;28;19993;-74
2024/03/24 04:47:00;;;;;;;;;;;7.20;99.90;;;;;;5102535;28;20079;-73
2024/03/24 04:49:26;;;;;;;;;;;7.20;99.90;;;;;;5102619;28;20006;-74
2024/03/24 04:51:51;;;;;;;;;;;7.10;99.90;;;;;;5102611;28;20408;-73
2024/03/24 04:54:17;;;;;;;;;;;7.20;99.90;;;;;;5102750;28;20468;-74
2024/03/24 04:56:43;;;;;;;;;;;7.10;99.90;;;;;;5102798;28;20849;-73
2024/03/24 04:59:08;;;;;;;;;;;7.10;99.90;;;;;;5102688;28;20035;-74
2024/03/24 05:01:34;;;;;;;;;;;7.10;99.90;;;;;;5102668;28;20033;-74
2024/03/24 05:04:00;;;;;;;;;;;7.10;99.90;;;;;;5102370;28;20001;-74
2024/03/24 05:06:27;;;;;;;;;;;7.10;99.90;;;;;;5102297;28;20028;-74
2024/03/24 05:08:53;;;;;;;;;;;7.10;99.90;;;;;;5102614;28;20422;-74
2024/03/24 05:11:18;;;;;;;;;;;6.90;99.90;;;;;;5102537;28;20003;-74
2024/03/24 05:13:47;;;;;;;;;;;7.00;99.90;;;;;;5105511;28;20550;-73
2024/03/24 05:16:13;;;;;;;;;;;7.10;99.90;;;;;;5104248;28;19992;-74
2024/03/24 05:18:39;;;;;;;;;;;7.10;99.90;;;;;;5109553;28;20007;-74
2024/03/24 05:21:04;;;;;;;;;;;7.00;99.90;;;;;;5103134;28;20107;-74
2024/03/24 05:23:30;;;;;;;;;;;7.10;99.90;;;;;;5109380;28;19989;-74
2024/03/24 05:25:56;;;;;;;;;;;7.00;99.90;;;;;;5109619;28;19988;-74
2024/03/24 05:28:21;;;;;;;;;;;7.00;99.90;;;;;;5109492;28;20707;-73
2024/03/24 05:30:49;;;;;;;;;;;7.00;99.90;;;;;;5109163;27;20061;-74
2024/03/24 05:33:15;;;;;;;;;;;7.00;99.90;;;;;;5117913;27;20009;-74
2024/03/24 05:35:41;;;;;;;;;;;7.00;99.90;;;;;;5111367;27;20018;-74
2024/03/24 05:38:06;;;;;;;;;;;7.00;99.90;;;;;;5108440;27;19989;-74
2024/03/24 05:40:32;;;;;;;;;;;7.00;99.90;;;;;;5109542;27;20000;-74
2024/03/24 05:42:58;;;;;;;;;;;7.00;99.90;;;;;;5112211;27;19994;-74
2024/03/24 05:45:23;;;;;;;;;;;7.00;99.90;;;;;;5108987;28;19989;-74
2024/03/24 05:47:49;;;;;;;;;;;7.00;99.90;;;;;;5111494;27;20023;-75
2024/03/24 05:50:14;;;;;;;;;;;6.90;99.90;;;;;;5108822;28;20476;-74
2024/03/24 05:52:42;;;;;;;;;;;6.80;99.90;;;;;;5108654;28;20004;-74
2024/03/24 05:55:10;;;;;;;;;;;6.80;99.90;;;;;;5108814;28;19996;-74
2024/03/24 05:57:36;;;;;;;;;;;6.90;99.90;;;;;;5108951;28;19988;-73
2024/03/24 06:00:03;;;;;;;;;;;6.90;99.90;;;;;;5114315;27;20078;-74
2024/03/24 06:02:30;;;;;;;;;;;7.00;99.90;;;;;;5109055;28;19992;-74
2024/03/24 06:04:55;;;;;;;;;;;7.00;99.90;;;;;;5108665;28;20355;-73
2024/03/24 06:07:22;;;;;;;;;;;7.10;99.90;;;;;;5108602;28;20024;-73
2024/03/24 06:09:52;;;;;;;;;;;7.10;99.90;;;;;;5108942;28;19996;-73
2024/03/24 06:12:17;;;;;;;;;;;7.20;99.90;;;;;;5108261;28;19989;-73
2024/03/24 06:14:43;;;;;;;;;;;7.10;99.90;;;;;;5110118;27;20729;-74
2024/03/24 06:17:08;;;;;;;;;;;7.20;99.90;;;;;;5104504;28;20299;-74
2024/03/24 06:19:34;;;;;;;;;;;7.20;99.90;;;;;;5108388;28;20007;-74
2024/03/24 06:21:59;;;;;;;;;;;7.30;99.90;;;;;;5108842;28;20431;-74
2024/03/24 06:24:25;;;;;;;;;;;7.40;99.90;;;;;;5108088;28;20443;-74
2024/03/24 06:26:51;;;;;;;;;;;7.30;99.90;;;;;;5105044;28;19989;-74
2024/03/24 06:29:16;;;;;;;;;;;7.30;99.90;;;;;;5105885;28;20129;-73
2024/03/24 06:31:42;;;;;;;;;;;7.40;99.90;;;;;;5105721;28;19988;-74
2024/03/24 06:34:08;;;;;;;;;;;7.40;99.90;;;;;;5105758;28;20004;-74
2024/03/24 06:36:34;;;;;;;;;;;7.40;99.90;;;;;;5105626;28;20045;-74
2024/03/24 06:39:00;;;;;;;;;;;7.50;99.90;;;;;;5105232;28;20012;-74
2024/03/24 06:41:27;;;;;;;;;;;7.50;99.90;;;;;;5105281;28;20440;-74
2024/03/24 06:43:53;;;;;;;;;;;7.70;99.90;;;;;;5105180;28;19985;-74
2024/03/24 06:46:19;;;;;;;;;;;7.60;99.90;;;;;;5110123;27;20016;-74
2024/03/24 06:48:44;;;;;;;;;;;7.50;99.90;;;;;;5105623;27;20046;-74
2024/03/24 06:51:10;;;;;;;;;;;7.70;99.90;;;;;;5111144;27;20459;-74
2024/03/24 06:53:36;;;;;;;;;;;7.60;99.90;;;;;;5109034;27;20062;-74
2024/03/24 06:56:01;;;;;;;;;;;7.80;99.90;;;;;;5110345;27;20042;-74
2024/03/24 06:58:27;;;;;;;;;;;7.90;99.90;;;;;;5105907;27;19988;-74
2024/03/24 07:00:53;;;;;;;;;;;8.00;99.90;;;;;;5105144;28;20077;-73
2024/03/24 07:03:21;;;;;;;;;;;7.90;99.90;;;;;;5104209;28;19993;-73
2024/03/24 07:05:47;;;;;;;;;;;8.00;99.90;;;;;;5104729;28;20020;-72
2024/03/24 07:08:12;;;;;;;;;;;8.20;99.90;;;;;;5106237;27;20031;-73
2024/03/24 07:10:38;;;;;;;;;;;8.30;99.90;;;;;;5108870;27;20000;-73
2024/03/24 07:13:03;;;;;;;;;;;8.40;99.90;;;;;;5097859;27;20004;-72
2024/03/24 07:15:29;;;;;;;;;;;8.30;99.90;;;;;;5108593;27;19997;-73
2024/03/24 07:17:54;;;;;;;;;;;8.50;99.90;;;;;;5102409;28;20050;-73
2024/03/24 07:20:20;;;;;;;;;;;8.80;99.90;;;;;;5105137;28;20559;-73
2024/03/24 07:22:46;;;;;;;;;;;9.00;99.90;;;;;;5104539;28;19992;-73
2024/03/24 07:25:12;;;;;;;;;;;9.20;99.90;;;;;;5105083;27;20651;-73
2024/03/24 07:27:38;;;;;;;;;;;9.20;99.90;;;;;;5104273;28;19988;-73
2024/03/24 07:30:06;;;;;;;;;;;9.10;99.90;;;;;;5104696;27;20761;-73
2024/03/24 07:32:32;;;;;;;;;;;9.20;99.90;;;;;;5103924;28;20005;-73
2024/03/24 07:34:57;;;;;;;;;;;9.00;99.90;;;;;;5103793;28;19993;-73
2024/03/24 07:37:23;;;;;;;;;;;9.40;99.90;;;;;;5102786;28;19999;-73
2024/03/24 07:39:48;;;;;;;;;;;9.50;99.90;;;;;;5102728;28;20477;-73
2024/03/24 07:42:14;;;;;;;;;;;9.30;99.90;;;;;;5106749;27;19992;-76
2024/03/24 07:44:40;;;;;;;;;;;9.10;99.90;;;;;;5101761;28;20481;-73
2024/03/24 07:47:06;;;;;;;;;;;9.30;99.90;;;;;;5089609;28;20450;-74
2024/03/24 07:49:32;;;;;;;;;;;9.40;99.90;;;;;;5103499;27;19989;-72
2024/03/24 07:51:58;;;;;;;;;;;9.30;99.90;;;;;;5087057;27;20019;-72
2024/03/24 07:54:23;;;;;;;;;;;8.90;99.90;;;;;;5106237;27;20026;-72
2024/03/24 07:56:49;;;;;;;;;;;8.80;99.90;;;;;;5103803;28;20498;-72
2024/03/24 07:59:17;;;;;;;;;;;8.60;99.90;;;;;;5104961;27;20401;-72
2024/03/24 08:01:42;;;;;;;;;;;8.80;99.90;;;;;;5104042;28;20105;-72
2024/03/24 08:04:08;;;;;;;;;;;9.20;99.90;;;;;;5104283;28;20567;-72
2024/03/24 08:06:33;;;;;;;;;;;9.90;99.90;;;;;;5087967;28;20027;-72
2024/03/24 08:08:59;;;;;;;;;;;10.40;97.60;;;;;;5103797;28;20004;-72
2024/03/24 08:11:24;;;;;;;;;;;11.20;97.30;;;;;;5104286;28;20016;-73
2024/03/24 08:13:50;;;;;;;;;;;11.10;96.60;;;;;;5103330;28;20005;-73
2024/03/24 08:16:15;;;;;;;;;;;10.80;96.00;;;;;;5103756;28;20015;-73
2024/03/24 08:18:41;;;;;;;;;;;10.60;97.30;;;;;;5104068;27;20050;-73
2024/03/24 08:21:06;;;;;;;;;;;10.30;97.20;;;;;;5103196;28;20247;-73
2024/03/24 08:23:32;;;;;;;;;;;10.00;98.00;;;;;;5103556;28;20095;-72
2024/03/24 08:25:58;;;;;;;;;;;9.70;98.30;;;;;;5103291;28;20027;-72
2024/03/24 08:28:24;;;;;;;;;;;9.30;98.90;;;;;;5103573;28;20011;-72
2024/03/24 08:30:49;;;;;;;;;;;8.90;99.60;;;;;;5104898;27;20050;-72
2024/03/24 08:33:15;;;;;;;;;;;8.70;99.90;;;;;;5107434;27;20464;-71
2024/03/24 08:35:40;;;;;;;;;;;8.50;99.90;;;;;;5103901;28;20080;-73
2024/03/24 08:38:06;;;;;;;;;;;9.20;99.90;;;;;;5103554;28;19985;-73
2024/03/24 08:40:31;;;;;;;;;;;9.70;99.40;;;;;;5103727;27;19988;-73
2024/03/24 08:42:57;;;;;;;;;;;10.20;97.90;;;;;;5098243;28;19988;-73
2024/03/24 08:45:22;;;;;;;;;;;10.60;96.80;;;;;;5103407;28;19992;-73
2024/03/24 08:47:48;;;;;;;;;;;10.00;96.60;;;;;;5103032;28;19992;-72
2024/03/24 08:50:14;;;;;;;;;;;10.30;97.40;;;;;;5111946;27;19992;-73
2024/03/24 08:52:39;;;;;;;;;;;10.80;96.30;;;;;;5106467;27;20008;-73
2024/03/24 08:55:05;;;;;;;;;;;11.50;95.20;;;;;;5103150;28;20173;-73
2024/03/24 08:57:31;;;;;;;;;;;12.10;94.20;;;;;;5103113;28;20447;-72
2024/03/24 08:59:58;;;;;;;;;;;12.70;92.60;;;;;;5104447;28;20079;-72
2024/03/24 09:02:24;;;;;;;;;;;12.00;92.20;;;;;;5108070;27;19992;-73
2024/03/24 09:04:53;;;;;;;;;;;11.40;93.60;;;;;;5110756;27;19993;-73
2024/03/24 09:07:21;;;;;;;;;;;10.60;94.30;;;;;;5102931;27;20131;-73
2024/03/24 09:09:47;;;;;;;;;;;9.70;95.90;;;;;;5100131;27;20084;-73
2024/03/24 09:12:13;;;;;;;;;;;8.70;97.50;;;;;;5102482;28;20351;-73
2024/03/24 09:14:39;;;;;;;;;;;9.30;97.70;;;;;;5101755;28;19997;-73
2024/03/24 09:17:04;;;;;;;;;;;9.50;95.60;;;;;;5103066;28;19992;-72
2024/03/24 09:19:30;;;;;;;;;;;9.60;95.00;;;;;;5101340;28;19997;-73
2024/03/24 09:21:56;;;;;;;;;;;10.70;95.20;;;;;;5107374;28;19995;-73
2024/03/24 09:24:22;;;;;;;;;;;12.90;91.10;;;;;;5101480;28;20389;-73
2024/03/24 09:26:49;;;;;;;;;;;14.00;89.30;;;;;;5100013;28;19989;-73
2024/03/24 09:29:14;;;;;;;;;;;14.60;81.90;;;;;;5104403;28;19991;-73
2024/03/24 09:31:40;;;;;;;;;;;14.50;83.50;;;;;;5106852;28;19992;-73
2024/03/24 09:34:06;;;;;;;;;;;15.50;77.40;;;;;;5102313;28;20012;-73
2024/03/24 09:36:31;;;;;;;;;;;14.00;79.60;;;;;;5103705;28;20072;-73
2024/03/24 09:38:57;;;;;;;;;;;14.20;81.10;;;;;;5103573;28;20047;-73
2024/03/24 09:41:26;;;;;;;;;;;13.70;81.80;;;;;;5109290;28;20086;-73
2024/03/24 09:43:51;;;;;;;;;;;12.50;83.30;;;;;;5102824;28;19985;-73
2024/03/24 09:46:18;;;;;;;;;;;12.40;84.10;;;;;;5103601;28;20023;-73
2024/03/24 09:48:44;;;;;;;;;;;12.40;85.40;;;;;;5101979;28;20087;-72
2024/03/24 09:51:10;;;;;;;;;;;11.90;85.80;;;;;;5103207;28;20016;-72
2024/03/24 09:53:37;;;;;;;;;;;11.80;86.40;;;;;;5102836;28;20777;-73
2024/03/24 09:56:07;;;;;;;;;;;11.80;86.30;;;;;;5098080;28;20024;-73
2024/03/24 09:58:33;;;;;;;;;;;11.70;87.60;;;;;;5102107;28;19989;-72
2024/03/24 10:00:58;;;;;;;;;;;11.80;86.80;;;;;;5101650;28;20523;-73
2024/03/24 10:03:24;;;;;;;;;;;11.80;87.20;;;;;;5103497;28;19995;-72
2024/03/24 10:05:50;;;;;;;;;;;11.90;89.30;;;;;;5113256;27;20051;-72
2024/03/24 10:08:15;;;;;;;;;;;12.00;89.40;;;;;;5115994;27;20048;-73
2024/03/24 10:10:41;;;;;;;;;;;12.30;89.20;;;;;;5112552;27;20451;-73
2024/03/24 10:13:08;;;;;;;;;;;12.00;90.10;;;;;;5110848;27;20004;-73
2024/03/24 10:15:33;;;;;;;;;;;12.40;89.70;;;;;;5111910;27;20083;-72
2024/03/24 10:18:06;;;;;;;;;;;12.40;89.70;;;;;;5104394;28;20103;-72
2024/03/24 10:20:32;;;;;;;;;;;12.30;89.60;;;;;;5117311;27;19992;-72
2024/03/24 10:22:58;;;;;;;;;;;12.30;89.70;;;;;;5105588;27;20504;-73
2024/03/24 10:25:25;;;;;;;;;;;13.00;85.70;;;;;;5104214;28;19996;-72
2024/03/24 10:27:51;;;;;;;;;;;13.80;84.50;;;;;;5106817;27;19999;-73
2024/03/24 10:30:16;;;;;;;;;;;13.60;86.30;;;;;;5105239;28;19988;-73
2024/03/24 10:32:42;;;;;;;;;;;14.20;84.40;;;;;;5106495;27;20440;-72
2024/03/24 10:35:08;;;;;;;;;;;13.60;80.10;;;;;;5105575;28;19993;-73
2024/03/24 10:37:34;;;;;;;;;;;13.40;79.50;;;;;;5102385;28;19989;-73
2024/03/24 10:39:59;;;;;;;;;;;12.80;77.70;;;;;;5099613;27;19993;-73
2024/03/24 10:42:27;;;;;;;;;;;12.00;80.30;;;;;;5116088;27;19999;-73
2024/03/24 10:44:54;;;;;;;;;;;12.50;79.20;;;;;;5099694;28;19996;-73
2024/03/24 10:47:20;;;;;;;;;;;12.50;79.20;;;;;;5097567;28;20805;-72
2024/03/24 10:49:46;;;;;;;;;;;12.40;80.70;;;;;;5094535;27;20028;-72
2024/03/24 10:52:14;;;;;;;;;;;12.60;78.50;;;;;;5087947;28;19999;-72
2024/03/24 10:54:39;;;;;;;;;;;12.80;79.70;;;;;;5091742;27;20008;-72
2024/03/24 10:57:06;;;;;;;;;;;12.90;74.40;;;;;;5089907;28;19993;-73
2024/03/24 10:59:32;;;;;;;;;;;12.50;75.20;;;;;;5094742;27;20127;-73
2024/03/24 11:01:58;;;;;;;;;;;12.50;76.00;;;;;;5106162;27;19993;-73
2024/03/24 11:04:25;;;;;;;;;;;12.50;75.70;;;;;;5097723;28;19988;-73
2024/03/24 11:06:51;;;;;;;;;;;12.70;76.30;;;;;;5091252;28;20027;-72
2024/03/24 11:09:16;;;;;;;;;;;13.20;78.90;;;;;;5099448;27;20657;-72
2024/03/24 11:11:42;;;;;;;;;;;13.20;75.80;;;;;;5094277;28;20035;-72
2024/03/24 11:14:09;;;;;;;;;;;13.60;75.10;;;;;;5098929;28;20538;-73
2024/03/24 11:16:35;;;;;;;;;;;13.10;75.10;;;;;;5102349;27;19996;-73
2024/03/24 11:19:04;;;;;;;;;;;13.20;74.20;;;;;;5103873;28;20041;-73
2024/03/24 11:21:35;;;;;;;;;;;13.10;73.70;;;;;;5100747;27;20032;-73
2024/03/24 11:24:02;;;;;;;;;;;13.80;76.40;;;;;;5100371;27;19992;-73
2024/03/24 11:26:31;;;;;;;;;;;14.40;75.20;;;;;;5101241;27;20107;-73
2024/03/24 11:28:56;;;;;;;;;;;14.30;72.60;;;;;;5105705;27;19993;-73
2024/03/24 11:31:22;;;;;;;;;;;14.10;67.10;;;;;;5103671;27;20836;-73
2024/03/24 11:34:00;;;;;;;;;;;13.80;66.90;;;;;;5106923;27;20038;-73
2024/03/24 11:36:26;;;;;;;;;;;13.90;69.80;;;;;;5103488;28;19992;-73
2024/03/24 11:38:54;;;;;;;;;;;13.60;70.50;;;;;;5103373;27;19995;-73
2024/03/24 11:41:20;;;;;;;;;;;12.70;73.60;;;;;;5094146;28;19993;-73
2024/03/24 11:44:12;;;;;;;;;;;12.60;74.60;;;;;;5099036;28;20792;-72
2024/03/24 11:46:37;;;;;;;;;;;13.10;74.40;;;;;;5094792;28;19995;-73
2024/03/24 11:49:03;;;;;;;;;;;13.30;74.40;;;;;;5075830;27;19989;-73
2024/03/24 11:51:30;;;;;;;;;;;13.10;73.60;;;;;;5110702;27;19992;-73
2024/03/24 11:53:56;;;;;;;;;;;13.20;73.70;;;;;;5104663;27;20004;-73
2024/03/24 11:56:22;;;;;;;;;;;13.30;73.50;;;;;;5101035;27;19999;-73
2024/03/24 11:58:48;;;;;;;;;;;13.20;72.40;;;;;;5102129;27;19989;-73
2024/03/24 12:01:15;;;;;;;;;;;13.30;72.40;;;;;;5102326;27;19993;-73
2024/03/24 12:03:40;;;;;;;;;;;13.40;72.30;;;;;;5101569;28;19997;-73
2024/03/24 12:06:06;;;;;;;;;;;13.20;73.70;;;;;;5104060;28;20028;-72
2024/03/24 12:08:32;;;;;;;;;;;13.10;77.20;;;;;;5102543;28;19988;-73
2024/03/24 12:10:58;;;;;;;;;;;13.40;79.30;;;;;;5102829;27;19992;-73
2024/03/24 12:13:23;;;;;;;;;;;13.80;82.00;;;;;;5099180;28;20005;-73
2024/03/24 12:15:49;;;;;;;;;;;14.00;78.50;;;;;;5102288;27;19997;-73
2024/03/24 12:18:14;;;;;;;;;;;14.00;77.10;;;;;;5104045;28;20493;-73
2024/03/24 12:20:40;;;;;;;;;;;13.80;81.30;;;;;;5104189;27;19996;-73
2024/03/24 12:23:06;;;;;;;;;;;13.50;78.90;;;;;;5105889;27;19988;-73
2024/03/24 12:25:32;;;;;;;;;;;13.50;78.90;;;;;;5102848;28;20074;-73
2024/03/24 12:27:57;;;;;;;;;;;13.40;82.10;;;;;;5103098;28;20461;-73
2024/03/24 12:30:26;;;;;;;;;;;13.00;79.40;;;;;;5103045;28;20032;-72
2024/03/24 12:32:52;;;;;;;;;;;12.70;76.70;;;;;;5085238;28;20388;-75
2024/03/24 12:35:18;;;;;;;;;;;12.70;80.10;;;;;;5108875;27;20379;-72
2024/03/24 12:37:47;;;;;;;;;;;13.40;80.00;;;;;;5105667;27;20046;-72
2024/03/24 12:40:16;;;;;;;;;;;13.80;78.90;;;;;;5102972;28;20119;-73
2024/03/24 12:42:41;;;;;;;;;;;14.10;74.20;;;;;;5102834;28;19996;-72
2024/03/24 12:45:10;;;;;;;;;;;13.70;76.40;;;;;;5103157;28;19991;-72
2024/03/24 12:47:40;;;;;;;;;;;13.00;80.00;;;;;;5103300;28;19992;-73
2024/03/24 12:50:23;;;;;;;;;;;12.10;82.10;;;;;;5102618;28;19997;-72
2024/03/24 12:52:50;;;;;;;;;;;12.10;81.10;;;;;;5097103;28;20499;-72
2024/03/24 12:55:16;;;;;;;;;;;11.80;77.90;;;;;;5102470;28;20045;-72
2024/03/24 12:57:42;;;;;;;;;;;11.70;80.00;;;;;;5102378;28;20845;-72
2024/03/24 13:00:08;;;;;;;;;;;11.90;82.30;;;;;;5100725;28;20010;-72
2024/03/24 13:02:33;;;;;;;;;;;12.00;81.70;;;;;;5102539;28;19992;-72
2024/03/24 13:04:59;;;;;;;;;;;12.30;81.00;;;;;;5101809;28;20000;-73
2024/03/24 13:07:25;;;;;;;;;;;12.50;79.40;;;;;;5105021;28;20517;-72
2024/03/24 13:09:50;;;;;;;;;;;12.90;79.50;;;;;;5104358;28;19988;-73
2024/03/24 13:12:16;;;;;;;;;;;13.40;79.00;;;;;;5102354;28;19993;-72
2024/03/24 13:14:41;;;;;;;;;;;13.20;74.10;;;;;;5104727;28;20706;-72
2024/03/24 13:17:07;;;;;;;;;;;12.90;75.20;;;;;;5101991;28;20042;-72
2024/03/24 13:19:51;;;;;;;;;;;12.80;76.40;;;;;;5101080;28;20448;-72
2024/03/24 13:22:17;;;;;;;;;;;13.10;77.60;;;;;;5105363;28;20000;-74
2024/03/24 13:24:49;;;;;;;;;;;13.30;77.10;;;;;;5102801;28;19993;-73
2024/03/24 13:27:41;;;;;;;;;;;13.40;75.10;;;;;;5102438;28;20011;-73
2024/03/24 13:30:07;;;;;;;;;;;13.90;76.90;;;;;;5100826;28;20109;-72
2024/03/24 13:32:32;;;;;;;;;;;13.70;72.70;;;;;;5103320;28;20098;-72
2024/03/24 13:34:58;;;;;;;;;;;13.20;75.10;;;;;;5087715;28;20480;-72
2024/03/24 13:37:26;;;;;;;;;;;12.50;76.00;;;;;;5106788;27;20565;-72
2024/03/24 13:39:57;;;;;;;;;;;12.20;74.70;;;;;;5115757;27;19996;-72
2024/03/24 13:42:32;;;;;;;;;;;12.10;76.20;;;;;;5108120;27;19996;-72
2024/03/24 13:45:00;;;;;;;;;;;12.30;74.70;;;;;;5105930;28;19988;-72
2024/03/24 13:47:32;;;;;;;;;;;12.60;76.60;;;;;;5106454;28;19992;-73
2024/03/24 13:50:02;;;;;;;;;;;12.70;74.80;;;;;;5106262;27;20027;-74
2024/03/24 13:52:29;;;;;;;;;;;12.90;75.00;;;;;;5106635;27;20600;-73
2024/03/24 13:54:54;;;;;;;;;;;11.80;73.80;;;;;;5105778;28;20039;-73
2024/03/24 13:57:20;;;;;;;;;;;11.50;74.30;;;;;;5111956;27;20064;-73
2024/03/24 13:59:45;;;;;;;;;;;11.70;74.90;;;;;;5100134;27;20155;-73
2024/03/24 14:02:12;;;;;;;;;;;11.80;74.00;;;;;;5110502;27;19993;-73
2024/03/24 14:04:38;;;;;;;;;;;12.00;74.00;;;;;;5106154;28;20570;-74
2024/03/24 14:07:04;;;;;;;;;;;12.50;73.60;;;;;;5115389;27;20107;-73
2024/03/24 14:09:29;;;;;;;;;;;12.40;70.90;;;;;;5090007;28;19996;-73
2024/03/24 14:11:56;;;;;;;;;;;12.20;73.40;;;;;;5111092;27;19997;-74
2024/03/24 14:14:21;;;;;;;;;;;12.40;74.30;;;;;;5105929;27;20465;-73
2024/03/24 14:16:49;;;;;;;;;;;12.10;71.80;;;;;;5114426;27;20014;-74
2024/03/24 14:19:29;;;;;;;;;;;12.20;73.80;;;;;;5112117;27;19993;-73